createdAt,value
2017-07-23T00:00:29.778Z,97.50
2017-07-23T00:02:58.045Z,97.30
2017-07-23T00:05:26.303Z,97.60
2017-07-23T00:07:54.600Z,97.60
2017-07-23T00:10:22.931Z,97.60
2017-07-23T00:12:51.199Z,97.80
2017-07-23T00:15:19.456Z,97.80
2017-07-23T00:17:47.756Z,97.80
2017-07-23T00:20:15.250Z,97.80
2017-07-23T00:22:43.561Z,97.70
2017-07-23T00:25:11.057Z,97.70
2017-07-23T00:27:39.322Z,97.50
2017-07-23T00:30:07.641Z,97.90
2017-07-23T00:32:35.918Z,97.50
2017-07-23T00:35:04.193Z,97.50
2017-07-23T00:37:32.484Z,97.50
2017-07-23T00:40:00.787Z,97.70
2017-07-23T00:42:29.057Z,97.60
2017-07-23T00:44:57.335Z,97.40
2017-07-23T00:47:24.872Z,97.40
2017-07-23T00:49:53.134Z,97.60
2017-07-23T00:52:21.428Z,97.50
2017-07-23T00:54:49.719Z,97.60
2017-07-23T00:57:18.027Z,97.50
2017-07-23T00:59:46.280Z,97.10
2017-07-23T01:02:14.540Z,97.10
2017-07-23T01:04:42.883Z,97.20
2017-07-23T01:07:11.159Z,97.50
2017-07-23T01:09:39.415Z,97.40
2017-07-23T01:12:07.711Z,97.70
2017-07-23T01:14:35.972Z,97.30
2017-07-23T01:17:04.291Z,97.50
2017-07-23T01:19:32.553Z,97.90
2017-07-23T01:22:00.812Z,97.60
2017-07-23T01:24:29.114Z,97.60
2017-07-23T01:26:57.396Z,98.30
2017-07-23T01:29:25.668Z,98.10
2017-07-23T01:31:53.963Z,98.10
2017-07-23T01:34:22.267Z,98.10
2017-07-23T01:36:50.544Z,98.40
2017-07-23T01:39:18.823Z,98.20
2017-07-23T01:41:47.113Z,98.00
2017-07-23T01:44:15.378Z,98.40
2017-07-23T01:46:43.647Z,97.90
2017-07-23T01:49:11.187Z,97.90
2017-07-23T01:51:39.482Z,98.10
2017-07-23T01:54:07.746Z,98.20
2017-07-23T01:56:36.025Z,98.20
2017-07-23T01:59:04.333Z,98.00
2017-07-23T02:01:32.601Z,98.50
2017-07-23T02:04:00.867Z,98.50
2017-07-23T02:06:29.169Z,98.70
2017-07-23T02:08:57.425Z,99.40
2017-07-23T02:11:26.644Z,99.20
2017-07-23T02:13:54.919Z,99.10
2017-07-23T02:16:23.182Z,99.10
2017-07-23T02:18:51.491Z,98.90
2017-07-23T02:21:19.767Z,99.30
2017-07-23T02:23:48.043Z,99.50
2017-07-23T02:26:15.580Z,99.50
2017-07-23T02:28:43.852Z,99.30
2017-07-23T02:31:12.158Z,99.10
2017-07-23T02:33:40.469Z,99.10
2017-07-23T02:36:08.718Z,99.70
2017-07-23T02:38:36.987Z,99.60
2017-07-23T02:41:05.289Z,99.40
2017-07-23T02:43:33.607Z,99.40
2017-07-23T02:46:01.870Z,98.80
2017-07-23T02:48:30.128Z,98.70
2017-07-23T02:50:58.404Z,99.10
2017-07-23T02:53:26.713Z,99.30
2017-07-23T02:55:54.250Z,99.20
2017-07-23T02:58:22.520Z,99.80
2017-07-23T03:00:50.019Z,99.80
2017-07-23T03:03:18.339Z,99.90
2017-07-23T03:05:46.612Z,99.90
2017-07-23T03:08:14.878Z,99.90
2017-07-23T03:10:42.408Z,99.90
2017-07-23T03:13:10.748Z,99.90
2017-07-23T03:15:39.025Z,99.90
2017-07-23T03:18:07.284Z,99.90
2017-07-23T03:20:35.598Z,99.90
2017-07-23T03:23:03.859Z,99.90
2017-07-23T03:25:32.123Z,99.30
2017-07-23T03:28:00.438Z,99.70
2017-07-23T03:30:28.718Z,99.30
2017-07-23T03:32:57.025Z,99.20
2017-07-23T03:35:25.307Z,99.10
2017-07-23T03:37:53.608Z,98.70
2017-07-23T03:40:21.928Z,98.90
2017-07-23T03:42:50.204Z,97.70
2017-07-23T03:45:18.467Z,97.90
2017-07-23T03:47:46.762Z,97.90
2017-07-23T03:50:15.031Z,97.80
2017-07-23T03:52:43.311Z,98.50
2017-07-23T03:55:11.604Z,98.10
2017-07-23T03:57:39.881Z,96.50
2017-07-23T04:00:08.185Z,97.30
2017-07-23T04:02:36.444Z,97.00
2017-07-23T04:05:04.706Z,97.30
2017-07-23T04:07:33.007Z,97.30
2017-07-23T04:10:01.263Z,97.20
2017-07-23T04:12:29.526Z,96.80
2017-07-23T04:14:57.817Z,97.00
2017-07-23T04:17:26.109Z,96.30
2017-07-23T04:19:54.380Z,96.30
2017-07-23T04:22:22.674Z,96.70
2017-07-23T04:24:50.930Z,96.00
2017-07-23T04:27:19.220Z,96.40
2017-07-23T04:29:47.469Z,96.70
2017-07-23T04:32:15.715Z,96.10
2017-07-23T04:34:44.004Z,96.20
2017-07-23T04:37:12.272Z,97.00
2017-07-23T04:39:40.574Z,96.60
2017-07-23T04:42:08.835Z,96.80
2017-07-23T04:44:37.093Z,97.00
2017-07-23T04:47:05.397Z,97.20
2017-07-23T04:49:33.652Z,97.10
2017-07-23T04:52:01.902Z,97.00
2017-07-23T04:54:30.214Z,97.20
2017-07-23T04:56:58.477Z,97.20
2017-07-23T04:59:26.725Z,97.50
2017-07-23T05:01:55.013Z,97.30
2017-07-23T05:04:22.504Z,97.00
2017-07-23T05:06:50.791Z,97.60
2017-07-23T05:09:18.276Z,97.60
2017-07-23T05:11:46.591Z,97.70
2017-07-23T05:14:14.892Z,97.50
2017-07-23T05:16:43.157Z,97.70
2017-07-23T05:19:11.411Z,97.60
2017-07-23T05:21:39.708Z,97.60
2017-07-23T05:24:07.969Z,97.80
2017-07-23T05:26:36.270Z,97.70
2017-07-23T05:29:04.520Z,97.50
2017-07-23T05:31:32.786Z,97.30
2017-07-23T05:34:01.090Z,98.10
2017-07-23T05:36:29.351Z,98.00
2017-07-23T05:38:57.614Z,97.60
2017-07-23T05:41:25.898Z,97.40
2017-07-23T05:43:54.158Z,97.40
2017-07-23T05:46:22.451Z,97.10
2017-07-23T05:48:50.721Z,97.70
2017-07-23T05:51:19.000Z,97.60
2017-07-23T05:53:47.308Z,96.70
2017-07-23T05:56:15.561Z,97.20
2017-07-23T05:58:43.823Z,96.90
2017-07-23T06:01:12.104Z,96.70
2017-07-23T06:03:40.375Z,96.30
2017-07-23T06:06:08.654Z,96.90
2017-07-23T06:08:36.924Z,96.40
2017-07-23T06:11:05.443Z,95.80
2017-07-23T06:13:33.707Z,96.30
2017-07-23T06:16:01.969Z,96.60
2017-07-23T06:18:30.282Z,96.30
2017-07-23T06:20:58.531Z,96.20
2017-07-23T06:23:26.787Z,96.50
2017-07-23T06:25:55.087Z,96.50
2017-07-23T06:28:23.359Z,95.90
2017-07-23T06:30:51.635Z,96.20
2017-07-23T06:33:19.951Z,95.60
2017-07-23T06:35:48.203Z,95.50
2017-07-23T06:38:16.463Z,95.20
2017-07-23T06:40:44.755Z,95.70
2017-07-23T06:43:13.055Z,96.50
2017-07-23T06:45:41.315Z,95.10
2017-07-23T06:48:09.579Z,95.70
2017-07-23T06:50:37.879Z,96.50
2017-07-23T06:53:06.135Z,95.90
2017-07-23T06:55:34.388Z,96.20
2017-07-23T06:58:02.697Z,95.50
2017-07-23T07:00:30.964Z,95.60
2017-07-23T07:02:59.212Z,95.30
2017-07-23T07:05:27.522Z,95.80
2017-07-23T07:07:55.772Z,95.50
2017-07-23T07:10:24.029Z,95.90
2017-07-23T07:12:52.336Z,95.30
2017-07-23T07:15:20.593Z,96.20
2017-07-23T07:17:48.853Z,95.80
2017-07-23T07:20:17.145Z,95.10
2017-07-23T07:22:45.403Z,96.00
2017-07-23T07:25:13.708Z,95.80
2017-07-23T07:27:41.959Z,95.90
2017-07-23T07:30:10.219Z,95.60
2017-07-23T07:32:38.515Z,95.80
2017-07-23T07:35:06.770Z,95.00
2017-07-23T07:37:35.036Z,95.20
2017-07-23T07:40:03.335Z,94.10
2017-07-23T07:42:31.602Z,94.30
2017-07-23T07:44:59.855Z,95.20
2017-07-23T07:47:27.380Z,95.20
2017-07-23T07:49:55.630Z,93.80
2017-07-23T07:52:23.908Z,93.50
2017-07-23T07:54:52.188Z,93.40
2017-07-23T07:57:20.444Z,92.20
2017-07-23T07:59:48.727Z,92.90
2017-07-23T08:02:16.988Z,95.00
2017-07-23T08:04:45.293Z,93.80
2017-07-23T08:07:13.558Z,93.90
2017-07-23T08:09:41.812Z,92.50
2017-07-23T08:12:10.103Z,93.10
2017-07-23T08:14:38.362Z,92.00
2017-07-23T08:17:06.640Z,92.10
2017-07-23T08:19:34.944Z,91.70
2017-07-23T08:22:03.190Z,90.50
2017-07-23T08:24:31.455Z,92.10
2017-07-23T08:26:58.975Z,92.10
2017-07-23T08:29:27.232Z,91.00
2017-07-23T08:31:55.529Z,90.80
2017-07-23T08:34:23.795Z,91.30
2017-07-23T08:36:52.054Z,90.50
2017-07-23T08:39:20.361Z,90.40
2017-07-23T08:41:48.626Z,86.40
2017-07-23T08:44:16.897Z,86.00
2017-07-23T08:46:45.196Z,84.90
2017-07-23T08:49:12.735Z,84.90
2017-07-23T08:51:40.986Z,84.30
2017-07-23T08:54:09.240Z,86.40
2017-07-23T08:56:37.521Z,84.80
2017-07-23T08:59:05.780Z,86.40
2017-07-23T09:01:34.090Z,86.20
2017-07-23T09:04:02.359Z,84.90
2017-07-23T09:06:30.616Z,82.90
2017-07-23T09:08:58.916Z,81.20
2017-07-23T09:11:26.429Z,81.10
2017-07-23T09:13:54.727Z,84.80
2017-07-23T09:16:22.219Z,84.90
2017-07-23T09:18:50.543Z,80.80
2017-07-23T09:21:18.801Z,80.00
2017-07-23T09:23:47.060Z,79.00
2017-07-23T09:26:15.358Z,78.00
2017-07-23T09:28:43.613Z,78.60
2017-07-23T09:31:11.874Z,78.40
2017-07-23T09:33:40.175Z,78.20
2017-07-23T09:36:08.440Z,80.20
2017-07-23T09:38:36.690Z,83.10
2017-07-23T09:41:04.975Z,79.80
2017-07-23T09:43:33.239Z,77.00
2017-07-23T09:46:01.506Z,77.40
2017-07-23T09:48:29.792Z,78.70
2017-07-23T09:50:59.086Z,80.40
2017-07-23T09:53:27.347Z,81.80
2017-07-23T09:55:55.707Z,83.80
2017-07-23T09:58:23.211Z,83.70
2017-07-23T10:00:51.471Z,84.40
2017-07-23T10:03:19.760Z,81.20
2017-07-23T10:05:48.015Z,83.00
2017-07-23T10:08:16.307Z,80.70
2017-07-23T10:10:44.568Z,79.50
2017-07-23T10:13:12.851Z,80.60
2017-07-23T10:15:41.202Z,80.30
2017-07-23T10:18:09.456Z,80.80
2017-07-23T10:20:37.704Z,80.70
2017-07-23T10:23:05.981Z,83.90
2017-07-23T10:25:34.235Z,78.30
2017-07-23T10:28:02.535Z,77.80
2017-07-23T10:30:30.796Z,77.80
2017-07-23T10:32:59.057Z,76.90
2017-07-23T10:35:27.343Z,77.50
2017-07-23T10:37:55.613Z,72.50
2017-07-23T10:40:23.904Z,70.40
2017-07-23T10:42:52.197Z,71.50
2017-07-23T10:45:20.563Z,75.20
2017-07-23T10:47:48.879Z,70.00
2017-07-23T10:50:18.123Z,69.70
2017-07-23T10:52:46.376Z,71.10
2017-07-23T10:55:13.899Z,71.10
2017-07-23T10:57:42.161Z,70.50
2017-07-23T11:00:10.461Z,70.00
2017-07-23T11:02:38.718Z,68.20
2017-07-23T11:05:06.967Z,72.00
2017-07-23T11:07:35.283Z,71.60
2017-07-23T11:10:03.572Z,70.50
2017-07-23T11:12:31.848Z,69.50
2017-07-23T11:15:00.170Z,71.60
2017-07-23T11:17:27.688Z,71.60
2017-07-23T11:19:55.979Z,73.10
2017-07-23T11:22:24.238Z,74.90
2017-07-23T11:24:52.544Z,73.90
2017-07-23T11:27:20.815Z,73.50
2017-07-23T11:29:49.089Z,74.50
2017-07-23T11:32:17.376Z,72.40
2017-07-23T11:34:44.868Z,72.50
2017-07-23T11:37:15.118Z,74.00
2017-07-23T11:39:43.366Z,76.80
2017-07-23T11:42:11.623Z,75.30
2017-07-23T11:44:39.916Z,72.40
2017-07-23T11:47:08.176Z,71.80
2017-07-23T11:49:35.704Z,71.80
2017-07-23T11:52:03.973Z,72.80
2017-07-23T11:54:32.264Z,72.20
2017-07-23T11:57:00.565Z,75.30
2017-07-23T11:59:28.873Z,73.20
2017-07-23T12:01:58.115Z,74.20
2017-07-23T12:04:26.398Z,75.10
2017-07-23T12:06:53.929Z,75.20
2017-07-23T12:09:22.178Z,74.60
2017-07-23T12:11:54.009Z,74.70
2017-07-23T12:14:21.517Z,74.70
2017-07-23T12:16:49.837Z,74.50
2017-07-23T12:19:18.099Z,76.20
2017-07-23T12:21:46.371Z,75.60
2017-07-23T12:24:14.665Z,78.90
2017-07-23T12:26:43.894Z,78.70
2017-07-23T12:29:12.153Z,79.00
2017-07-23T12:31:40.419Z,77.70
2017-07-23T12:34:08.718Z,75.90
2017-07-23T12:36:36.994Z,78.70
2017-07-23T12:39:05.253Z,73.90
2017-07-23T12:41:33.532Z,73.60
2017-07-23T12:44:01.786Z,75.50
2017-07-23T12:46:30.077Z,75.10
2017-07-23T12:48:58.335Z,74.10
2017-07-23T12:51:26.627Z,75.10
2017-07-23T12:53:54.893Z,75.90
2017-07-23T12:56:23.169Z,76.50
2017-07-23T12:58:51.451Z,74.80
2017-07-23T13:01:19.753Z,75.00
2017-07-23T13:03:48.023Z,73.90
2017-07-23T13:06:16.288Z,74.60
2017-07-23T13:08:44.585Z,75.00
2017-07-23T13:11:12.857Z,71.80
2017-07-23T13:13:41.169Z,73.20
2017-07-23T13:16:09.425Z,71.70
2017-07-23T13:18:37.697Z,71.30
2017-07-23T13:21:06.003Z,70.00
2017-07-23T13:23:34.256Z,71.10
2017-07-23T13:26:02.532Z,71.30
2017-07-23T13:28:30.827Z,70.70
2017-07-23T13:30:59.093Z,71.30
2017-07-23T13:33:27.397Z,74.10
2017-07-23T13:35:55.659Z,77.20
2017-07-23T13:38:24.886Z,78.60
2017-07-23T13:40:53.171Z,80.90
2017-07-23T13:43:21.455Z,85.10
2017-07-23T13:45:49.742Z,85.10
2017-07-23T13:48:17.987Z,86.50
2017-07-23T13:50:46.238Z,85.20
2017-07-23T13:53:14.528Z,84.60
2017-07-23T13:55:42.821Z,84.30
2017-07-23T13:58:11.122Z,86.80
2017-07-23T14:00:40.290Z,81.80
2017-07-23T14:03:08.544Z,82.20
2017-07-23T14:05:37.003Z,81.30
2017-07-23T14:08:05.339Z,79.80
2017-07-23T14:10:33.628Z,80.70
2017-07-23T14:13:01.974Z,79.40
2017-07-23T14:15:30.244Z,80.20
2017-07-23T14:17:58.540Z,79.00
2017-07-23T14:20:26.037Z,79.00
2017-07-23T14:22:54.345Z,77.20
2017-07-23T14:25:22.620Z,78.20
2017-07-23T14:27:50.876Z,77.60
2017-07-23T14:30:19.167Z,76.50
2017-07-23T14:32:47.436Z,76.10
2017-07-23T14:35:15.748Z,75.90
2017-07-23T14:37:44.004Z,75.80
2017-07-23T14:40:12.258Z,77.40
2017-07-23T14:42:40.566Z,79.30
2017-07-23T14:45:08.824Z,79.30
2017-07-23T14:47:37.133Z,78.50
2017-07-23T14:50:05.444Z,79.10
2017-07-23T14:52:33.704Z,78.70
2017-07-23T14:55:01.965Z,79.40
2017-07-23T14:57:30.254Z,80.10
2017-07-23T14:59:58.525Z,79.10
2017-07-23T15:02:26.809Z,76.30
2017-07-23T15:04:55.119Z,77.20
2017-07-23T15:07:23.383Z,77.80
2017-07-23T15:09:50.910Z,77.70
2017-07-23T15:12:19.210Z,75.80
2017-07-23T15:14:47.469Z,77.70
2017-07-23T15:17:15.728Z,75.60
2017-07-23T15:19:44.021Z,75.50
2017-07-23T15:22:12.275Z,79.00
2017-07-23T15:24:40.583Z,76.80
2017-07-23T15:27:08.884Z,76.10
2017-07-23T15:29:37.148Z,75.60
2017-07-23T15:32:05.411Z,76.30
2017-07-23T15:34:33.734Z,73.90
2017-07-23T15:37:01.990Z,77.10
2017-07-23T15:39:30.252Z,76.00
2017-07-23T15:41:58.553Z,74.00
2017-07-23T15:44:26.812Z,75.10
2017-07-23T15:46:55.097Z,76.10
2017-07-23T15:49:23.373Z,75.30
2017-07-23T15:51:51.662Z,74.50
2017-07-23T15:54:19.955Z,75.40
2017-07-23T15:56:48.204Z,75.20
2017-07-23T15:59:16.475Z,74.70
2017-07-23T16:01:44.758Z,76.80
2017-07-23T16:04:13.019Z,76.20
2017-07-23T16:06:41.327Z,76.40
2017-07-23T16:09:09.598Z,75.10
2017-07-23T16:11:37.857Z,74.10
2017-07-23T16:14:06.136Z,74.50
2017-07-23T16:16:34.409Z,71.50
2017-07-23T16:19:02.703Z,71.10
2017-07-23T16:21:30.979Z,71.90
2017-07-23T16:24:00.261Z,73.60
2017-07-23T16:26:28.524Z,73.60
2017-07-23T16:28:57.706Z,73.30
2017-07-23T16:31:25.999Z,72.70
2017-07-23T16:33:54.424Z,72.00
2017-07-23T16:36:22.725Z,73.60
2017-07-23T16:38:50.989Z,76.20
2017-07-23T16:41:19.252Z,76.60
2017-07-23T16:43:47.563Z,78.80
2017-07-23T16:46:15.846Z,80.60
2017-07-23T16:48:44.107Z,79.70
2017-07-23T16:51:12.420Z,79.70
2017-07-23T16:53:40.691Z,80.10
2017-07-23T16:56:09.036Z,79.70
2017-07-23T16:58:37.337Z,80.10
2017-07-23T17:01:05.624Z,82.90
2017-07-23T17:03:33.915Z,81.80
2017-07-23T17:06:02.193Z,81.50
2017-07-23T17:08:30.469Z,83.00
2017-07-23T17:10:58.760Z,81.90
2017-07-23T17:13:27.017Z,80.40
2017-07-23T17:15:55.371Z,81.00
2017-07-23T17:18:23.619Z,81.10
2017-07-23T17:20:51.876Z,79.10
2017-07-23T17:23:20.160Z,79.00
2017-07-23T17:25:48.424Z,81.10
2017-07-23T17:28:19.425Z,79.70
2017-07-23T17:30:47.299Z,79.70
2017-07-23T17:33:15.600Z,79.40
2017-07-23T17:35:43.879Z,78.90
2017-07-23T17:38:11.388Z,78.90
2017-07-23T17:40:39.702Z,79.30
2017-07-23T17:43:07.964Z,80.10
2017-07-23T17:45:36.218Z,78.10
2017-07-23T17:48:04.507Z,77.80
2017-07-23T17:50:32.755Z,78.90
2017-07-23T17:53:01.070Z,81.30
2017-07-23T17:55:28.575Z,81.30
2017-07-23T17:57:56.878Z,87.90
2017-07-23T18:00:25.165Z,88.30
2017-07-23T18:02:53.428Z,87.50
2017-07-23T18:05:21.701Z,89.00
2017-07-23T18:07:50.000Z,87.60
2017-07-23T18:10:18.263Z,89.00
2017-07-23T18:12:46.520Z,86.10
2017-07-23T18:15:14.839Z,88.70
2017-07-23T18:17:43.112Z,87.80
2017-07-23T18:20:11.376Z,86.50
2017-07-23T18:22:39.670Z,85.80
2017-07-23T18:25:07.927Z,89.10
2017-07-23T18:27:35.468Z,88.90
2017-07-23T18:30:03.734Z,86.30
2017-07-23T18:32:31.996Z,85.50
2017-07-23T18:35:01.267Z,82.90
2017-07-23T18:37:29.519Z,85.80
2017-07-23T18:39:57.034Z,85.60
2017-07-23T18:42:25.316Z,83.40
2017-07-23T18:44:53.605Z,83.40
2017-07-23T18:47:21.131Z,83.30
2017-07-23T18:49:49.466Z,83.20
2017-07-23T18:52:17.736Z,84.30
2017-07-23T18:54:46.008Z,83.00
2017-07-23T18:57:14.309Z,82.80
2017-07-23T18:59:42.579Z,82.60
2017-07-23T19:02:10.871Z,82.30
2017-07-23T19:04:39.127Z,81.90
2017-07-23T19:07:07.629Z,81.90
2017-07-23T19:09:35.900Z,84.10
2017-07-23T19:12:04.192Z,82.80
2017-07-23T19:14:32.450Z,85.70
2017-07-23T19:17:00.744Z,85.00
2017-07-23T19:19:29.003Z,83.70
2017-07-23T19:21:57.313Z,84.60
2017-07-23T19:24:25.584Z,84.20
2017-07-23T19:26:53.853Z,83.80
2017-07-23T19:29:22.154Z,84.60
2017-07-23T19:31:50.417Z,84.50
2017-07-23T19:34:18.685Z,84.90
2017-07-23T19:36:46.974Z,84.60
2017-07-23T19:39:15.265Z,86.80
2017-07-23T19:41:43.541Z,87.30
2017-07-23T19:44:11.827Z,86.70
2017-07-23T19:46:40.088Z,86.10
2017-07-23T19:49:08.382Z,86.80
2017-07-23T19:51:36.693Z,87.50
2017-07-23T19:54:04.963Z,87.30
2017-07-23T19:56:33.258Z,86.90
2017-07-23T19:59:01.520Z,86.00
2017-07-23T20:01:29.771Z,85.50
2017-07-23T20:03:58.062Z,85.40
2017-07-23T20:06:26.328Z,86.40
2017-07-23T20:08:54.624Z,85.40
2017-07-23T20:11:22.925Z,85.60
2017-07-23T20:13:51.247Z,86.80
2017-07-23T20:16:19.503Z,86.10
2017-07-23T20:18:47.760Z,85.90
2017-07-23T20:21:16.060Z,85.00
2017-07-23T20:23:44.323Z,86.70
2017-07-23T20:26:12.607Z,86.60
2017-07-23T20:28:40.867Z,86.10
2017-07-23T20:33:42.796Z,86.70
2017-07-23T20:36:11.056Z,87.30
2017-07-23T20:38:39.305Z,86.50
2017-07-23T20:41:07.586Z,86.40
2017-07-23T20:43:35.864Z,87.30
2017-07-23T20:46:04.155Z,86.90
2017-07-23T20:48:32.404Z,86.40
2017-07-23T20:51:00.648Z,87.30
2017-07-23T20:53:28.942Z,86.80
2017-07-23T20:55:57.208Z,86.90
2017-07-23T20:58:25.481Z,86.90
2017-07-23T21:00:53.775Z,86.60
2017-07-23T21:03:22.032Z,86.60
2017-07-23T21:05:50.328Z,88.30
2017-07-23T21:08:18.612Z,87.60
2017-07-23T21:10:46.935Z,87.70
2017-07-23T21:13:15.203Z,87.50
2017-07-23T21:15:43.456Z,88.00
2017-07-23T21:18:11.735Z,89.00
2017-07-23T21:20:40.014Z,88.10
2017-07-23T21:23:08.330Z,88.80
2017-07-23T21:25:36.580Z,88.30
2017-07-23T21:28:04.841Z,88.20
2017-07-23T21:30:33.131Z,87.70
2017-07-23T21:33:01.387Z,88.80
2017-07-23T21:35:29.669Z,89.30
2017-07-23T21:37:57.956Z,87.80
2017-07-23T21:40:26.213Z,88.70
2017-07-23T21:42:54.529Z,89.50
2017-07-23T21:45:22.796Z,88.70
2017-07-23T21:47:51.050Z,88.80
2017-07-23T21:50:19.360Z,89.00
2017-07-23T21:52:47.618Z,89.50
2017-07-23T21:55:15.915Z,90.10
2017-07-23T21:57:44.186Z,89.90
2017-07-23T22:00:12.466Z,89.90
2017-07-23T22:02:40.740Z,89.30
2017-07-23T22:05:08.268Z,89.30
2017-07-23T22:07:36.589Z,90.20
2017-07-23T22:10:04.848Z,90.90
2017-07-23T22:12:33.103Z,90.50
2017-07-23T22:15:01.396Z,90.50
2017-07-23T22:17:29.655Z,90.90
2017-07-23T22:19:57.961Z,90.90
2017-07-23T22:22:26.213Z,90.70
2017-07-23T22:24:54.463Z,90.80
2017-07-23T22:27:22.755Z,90.70
2017-07-23T22:29:51.028Z,90.70
2017-07-23T22:32:19.333Z,90.70
2017-07-23T22:34:46.823Z,90.60
2017-07-23T22:37:15.082Z,91.00
2017-07-23T22:39:43.370Z,91.10
2017-07-23T22:42:11.627Z,91.20
2017-07-23T22:44:39.919Z,90.30
2017-07-23T22:47:08.233Z,89.30
2017-07-23T22:49:36.486Z,89.30
2017-07-23T22:52:04.747Z,90.50
2017-07-23T22:54:33.041Z,90.40
2017-07-23T22:57:01.338Z,91.10
2017-07-23T22:59:29.630Z,91.40
2017-07-23T23:01:57.898Z,91.50
2017-07-23T23:04:26.192Z,91.70
2017-07-23T23:06:54.503Z,91.60
2017-07-23T23:09:22.004Z,91.60
2017-07-23T23:11:50.292Z,91.40
2017-07-23T23:14:18.550Z,91.40
2017-07-23T23:16:46.844Z,91.50
2017-07-23T23:19:15.131Z,91.30
2017-07-23T23:21:43.440Z,91.40
2017-07-23T23:24:11.711Z,91.20
2017-07-23T23:26:39.973Z,91.30
2017-07-23T23:29:08.280Z,91.70
2017-07-23T23:31:36.552Z,92.30
2017-07-23T23:37:17.980Z,93.30
2017-07-23T23:48:20.548Z,93.20
2017-07-23T23:50:48.806Z,93.60
2017-07-23T23:53:17.076Z,93.60
2017-07-23T23:55:45.383Z,93.40
2017-07-23T23:58:13.644Z,93.40
